KXE weather

P C Pelser Airport
Klerksdorp, North-West, South Africa

Public forecast

Using degrees Celsius for public forecast. Weather courtesy of forecast.io.

METAR (pilot weather report)

Report is more than 6 hours old.

Closest report is Potchefstroom Airport, 22.9 nm (42.4 km) ENE. Retrieved 2013/07/12 07:00 UTC (6 years ago):

FAPS 120700Z AUTO 08002KT //// // ////// 11/// Q1032

TAF (pilot weather forecast)

Forecast is more than 12 hours old.

Closest forecast is Lanseria Airport, 85.8 nm (158.8 km) NE. Retrieved 2019/05/20 00:00 UTC (1 day ago):

TAF FALA 202200Z 2100/2124 VRB03KT CAVOK TX24/2113Z TN10/2104Z